Krizevci, Croatia

11:06 PM CEST on April 28, 2015 (GMT +0200)
Trnovec Bartolovecki | | Change Station
CLOSE
Current Station
Personal Weather Station
Location: Trnovec Bartolovecki, Podravina
Elevation: 539 ft
Nearby Weather Stations

Elev 539 ft 46.29 °N, 16.40 °E | Updated 25 seconds ago

Light Rain
Light Rain
50.3 °F
Feels Like 50.3 °F
N
8.0
Wind Variable Wind from North
Gusts 8.0 mph

Today
High -- | Low -- °F
--% Chance of Precip.
Yesterday
High -- | Low -- °F
Precip. -- in
5:46 AM 7:57 PM
Waxing Gibbous, 76% visible
Pressure 29.92 in
Visibility 6.2 miles
Clouds
Dew Point 46 °F
Humidity 85%
Rainfall 0.30 in
Snow Depth Not available.
UV 0.0 out of 12
Pollen Not available.
Air Quality Not available.
Flu Activity Not available.
METAR LDZA 282100Z 07005KT 350V120 9999 -RA NSC 12/08 Q1013 NOSIG

More Conditions Fewer Conditions

Pressure 29.92 in
Visibility 6.2 miles
Clouds
Dew Point 46 °F
Humidity 85%
Rainfall 0.30 in
Snow Depth Not available.
UV 0.0 out of 12
Pollen Not available.
Air Quality Not available.
Flu Activity Not available.
METAR LDZA 282100Z 07005KT 350V120 9999 -RA NSC 12/08 Q1013 NOSIG

More Conditions Fewer Conditions

10-Day Weather Forecast

Almanac

Astronomy

Apr. 28, 2015 Rise Set
Actual Time
Civil Twilight
Nautical Twilight
Astronomical Twilight
Moon
Length of Visible Light
Length of Day
Tomorrow will be .
, % of the Moon is Illuminated

Today's Extremes

Country Highs Country Lows

Community

WunderPhotos

Upload Photos

1,817,749 photos uploaded!

WunderBlogs® & News

Nearby

Air Quality

  Air Quality AQ Index Pollutant
Not available.

Snow Depth

Station Depth Elevation

Earthquake Activity

City Distance Mag. Time & Date
Minimum magnitude displayed is 2.5.

Coastal Water Temperatures

Place Temperature

Stations

Nearby Weather Stations

Station Location Temp. Windchill Dew Point Humidity Wind Precip. Elev Updated Type